TimeCST,TemperatureF,Dew PointF,Humidity,Sea Level PressureIn,VisibilityMPH,Wind Direction,Wind SpeedMPH,Gust SpeedMPH,PrecipitationIn,Events,Conditions,WindDirDegrees,DateUTC
12:58 AM,45.9,39.2,78,30.23,10.0,ENE,4.6,-,N/A,,Clear,60,2013-11-04 06:58:00
1:58 AM,46.6,38.8,74,30.22,10.0,ENE,4.6,-,N/A,,Clear,70,2013-11-04 07:58:00
2:58 AM,47.5,39.2,73,30.22,10.0,East,5.8,-,N/A,,Clear,80,2013-11-04 08:58:00
3:58 AM,49.8,39.7,68,30.22,10.0,East,6.9,-,N/A,,Clear,90,2013-11-04 09:58:00
4:58 AM,49.5,39.9,70,30.23,8.0,East,4.6,-,N/A,,Clear,100,2013-11-04 10:58:00
5:58 AM,48.4,40.1,73,30.24,10.0,ENE,4.6,-,N/A,,Clear,70,2013-11-04 11:58:00
6:58 AM,49.5,39.9,70,30.26,10.0,NE,4.6,-,N/A,,Clear,50,2013-11-04 12:58:00
7:58 AM,56.3,40.1,55,30.28,10.0,East,8.1,-,N/A,,Clear,80,2013-11-04 13:58:00
8:55 AM,62.1,42.6,49,30.27,10.0,East,10.4,-,N/A,,Scattered Clouds,80,2013-11-04 14:55:00
9:55 AM,66.7,46.2,48,30.29,10.0,East,8.1,-,N/A,,Scattered Clouds,80,2013-11-04 15:55:00
10:55 AM,69.1,47.5,46,30.29,10.0,Variable,5.8,-,N/A,,Scattered Clouds,0,2013-11-04 16:55:00
11:55 AM,71.6,48.9,45,30.26,10.0,NE,6.9,-,N/A,,Scattered Clouds,50,2013-11-04 17:55:00
12:55 PM,73.6,50.0,43,30.25,10.0,Variable,5.8,-,N/A,,Partly Cloudy,0,2013-11-04 18:55:00
1:55 PM,74.7,50.9,43,30.24,10.0,Variable,5.8,-,N/A,,Partly Cloudy,0,2013-11-04 19:55:00
2:55 PM,73.8,50.7,44,30.21,10.0,NE,8.1,-,N/A,,Scattered Clouds,40,2013-11-04 20:55:00
3:55 PM,73.8,50.7,44,30.23,10.0,East,5.8,-,N/A,,Partly Cloudy,80,2013-11-04 21:55:00
4:59 PM,67.6,50.7,55,30.23,10.0,ENE,4.6,-,N/A,,Mostly Cloudy,70,2013-11-04 22:59:00
5:55 PM,65.1,50.2,58,30.25,10.0,ENE,4.6,-,N/A,,Mostly Cloudy,60,2013-11-04 23:55:00
6:55 PM,61.3,50.4,67,30.25,10.0,ENE,5.8,-,N/A,,Mostly Cloudy,60,2013-11-05 00:55:00
7:55 PM,62.2,49.8,64,30.27,10.0,ENE,6.9,-,N/A,,Mostly Cloudy,60,2013-11-05 01:55:00
8:55 PM,62.6,49.6,63,30.26,10.0,ENE,9.2,-,N/A,,Scattered Clouds,70,2013-11-05 02:55:00
9:55 PM,61.5,49.6,65,30.27,10.0,ENE,8.1,-,N/A,,Scattered Clouds,70,2013-11-05 03:55:00
10:55 PM,60.8,50.0,68,30.27,10.0,ENE,8.1,-,N/A,,Scattered Clouds,70,2013-11-05 04:55:00
11:55 PM,59.7,48.2,66,30.24,10.0,ENE,9.2,-,N/A,,Scattered Clouds,70,2013-11-05 05:55:00